Time;durP1;ratioP1;P1;durP2;ratioP2;P2;SDS_P1;SDS_P2;PMS_P1;PMS_P2;Temp;Humidity;BMP_temperature;BMP_pressure;BME280_temperature;BME280_humidity;BME280_pressure;Samples;Min_cycle;Max_cycle;Signal;HPM_P1;HPM_P2
2022/01/24 00:01:47;;;;;;;;;;;19.70;99.90;;;;;;5056545;28;852;-46
2022/01/24 00:04:13;;;;;;;;;;;19.70;99.90;;;;;;5047590;28;751;-46
2022/01/24 00:06:40;;;;;;;;;;;19.60;99.90;;;;;;5037666;28;926;-47
2022/01/24 00:09:07;;;;;;;;;;;19.60;99.90;;;;;;5037532;28;995;-46
2022/01/24 00:28:06;;;;;;;;;;;19.50;99.90;;;;;;5036873;28;1100;-46
2022/01/24 00:30:32;;;;;;;;;;;19.40;99.90;;;;;;5038749;28;1894;-46
2022/01/24 00:32:58;;;;;;;;;;;19.20;99.90;;;;;;5038874;28;1389;-46
2022/01/24 00:35:24;;;;;;;;;;;19.10;99.90;;;;;;5037276;28;1019;-46
2022/01/24 00:37:52;;;;;;;;;;;19.00;99.90;;;;;;5033667;28;1255;-52
2022/01/24 00:40:18;;;;;;;;;;;18.90;99.90;;;;;;5039200;28;1251;-52
2022/01/24 00:45:28;;;;;;;;;;;18.70;99.90;;;;;;5044752;28;1052;-52
2022/01/24 00:53:30;;;;;;;;;;;18.50;99.90;;;;;;5039779;28;1104;-51
2022/01/24 00:55:57;;;;;;;;;;;18.40;99.90;;;;;;5037812;28;1219;-52
2022/01/24 00:58:23;;;;;;;;;;;18.30;99.90;;;;;;5035587;28;1251;-52
2022/01/24 01:00:49;;;;;;;;;;;18.30;99.90;;;;;;5036643;28;1038;-51
2022/01/24 01:03:16;;;;;;;;;;;18.20;99.90;;;;;;5037198;28;771;-52
2022/01/24 01:06:02;;;;;;;;;;;18.20;99.90;;;;;;5035280;28;960;-51
2022/01/24 01:19:34;;;;;;;;;;;17.80;99.90;;;;;;5013811;28;1113;-46
2022/01/24 01:22:00;;;;;;;;;;;17.80;99.90;;;;;;5037864;28;1255;-51
2022/01/24 01:24:28;;;;;;;;;;;17.70;99.90;;;;;;5054981;28;877;-46
2022/01/24 01:27:09;;;;;;;;;;;17.60;99.90;;;;;;5037343;28;1046;-52
2022/01/24 01:29:49;;;;;;;;;;;17.60;99.90;;;;;;5055407;28;763;-51
2022/01/24 01:32:36;;;;;;;;;;;17.60;99.90;;;;;;5035977;28;2302;-52
2022/01/24 01:56:56;;;;;;;;;;;17.00;99.90;;;;;;4987164;28;1297;-52
2022/01/24 01:59:22;;;;;;;;;;;16.90;99.90;;;;;;5040410;28;766;-46
2022/01/24 02:01:48;;;;;;;;;;;16.90;99.90;;;;;;5040376;28;863;-46
2022/01/24 02:04:14;;;;;;;;;;;16.80;99.90;;;;;;5040418;28;932;-46
2022/01/24 02:06:40;;;;;;;;;;;16.80;99.90;;;;;;5040112;28;839;-46
2022/01/24 02:09:11;;;;;;;;;;;16.70;99.90;;;;;;5039337;28;1582;-46
2022/01/24 02:11:37;;;;;;;;;;;16.70;99.90;;;;;;5035469;28;1914;-46
2022/01/24 02:14:07;;;;;;;;;;;16.70;99.90;;;;;;5040394;28;826;-46
2022/01/24 02:16:51;;;;;;;;;;;16.60;99.90;;;;;;5040171;28;845;-52
2022/01/24 02:24:32;;;;;;;;;;;16.50;99.90;;;;;;5057999;28;762;-47
2022/01/24 02:26:59;;;;;;;;;;;16.50;99.90;;;;;;5046229;28;1426;-46
2022/01/24 02:31:52;;;;;;;;;;;16.40;99.90;;;;;;5058858;28;1918;-52
2022/01/24 02:34:35;;;;;;;;;;;16.30;99.90;;;;;;5047990;28;999;-52
2022/01/24 02:37:03;;;;;;;;;;;16.30;99.90;;;;;;5039822;28;868;-52
2022/01/24 02:51:13;;;;;;;;;;;16.10;99.90;;;;;;5036118;28;1902;-52
2022/01/24 02:53:12;;;;;;;;;;;16.10;99.90;;;;;;5035801;28;1371;-52
2022/01/24 02:55:41;;;;;;;;;;;16.00;99.90;;;;;;5039007;28;877;-52
2022/01/24 02:58:07;;;;;;;;;;;16.00;99.90;;;;;;5049052;28;1013;-52
2022/01/24 03:00:33;;;;;;;;;;;16.00;99.90;;;;;;5039541;28;809;-52
2022/01/24 03:02:59;;;;;;;;;;;15.90;99.90;;;;;;5039437;28;1139;-52
2022/01/24 03:05:25;;;;;;;;;;;15.90;99.90;;;;;;5039445;28;806;-52
2022/01/24 03:07:51;;;;;;;;;;;15.90;99.90;;;;;;5039207;28;767;-52
2022/01/24 03:10:42;;;;;;;;;;;15.90;99.90;;;;;;5039110;28;1903;-52
2022/01/24 03:15:38;;;;;;;;;;;15.80;99.90;;;;;;5038975;28;888;-52
2022/01/24 03:18:04;;;;;;;;;;;15.80;99.90;;;;;;5039782;28;1171;-46
2022/01/24 03:20:30;;;;;;;;;;;15.80;99.90;;;;;;5057203;28;774;-46
2022/01/24 03:22:56;;;;;;;;;;;15.70;99.90;;;;;;5048672;28;1258;-46
2022/01/24 03:25:22;;;;;;;;;;;15.70;99.90;;;;;;5038973;28;815;-46
2022/01/24 03:27:48;;;;;;;;;;;15.70;99.90;;;;;;5033709;28;865;-46
2022/01/24 03:30:14;;;;;;;;;;;15.60;99.90;;;;;;5038752;28;853;-46
2022/01/24 03:32:40;;;;;;;;;;;15.60;99.90;;;;;;5038672;28;1975;-46
2022/01/24 03:35:07;;;;;;;;;;;15.60;99.90;;;;;;5020646;28;1350;-46
2022/01/24 03:37:34;;;;;;;;;;;15.60;99.90;;;;;;5038455;28;885;-47
2022/01/24 03:40:01;;;;;;;;;;;15.50;99.90;;;;;;5038039;28;905;-46
2022/01/24 03:42:27;;;;;;;;;;;15.50;99.90;;;;;;5038393;28;861;-46
2022/01/24 03:44:57;;;;;;;;;;;15.50;99.90;;;;;;5021174;28;860;-46
2022/01/24 03:47:42;;;;;;;;;;;15.50;99.90;;;;;;5038576;28;799;-46
2022/01/24 03:50:16;;;;;;;;;;;15.50;99.90;;;;;;5038122;28;974;-46
2022/01/24 03:52:46;;;;;;;;;;;15.40;99.90;;;;;;5038213;28;1966;-46
2022/01/24 03:55:12;;;;;;;;;;;15.30;99.90;;;;;;5038215;28;817;-46
2022/01/24 03:57:38;;;;;;;;;;;15.30;99.90;;;;;;5038223;28;757;-46
2022/01/24 04:00:07;;;;;;;;;;;15.30;99.90;;;;;;5038458;28;767;-46
2022/01/24 04:02:33;;;;;;;;;;;15.30;99.90;;;;;;5038114;28;892;-46
2022/01/24 04:04:59;;;;;;;;;;;15.30;99.90;;;;;;5036772;28;873;-46
2022/01/24 04:07:25;;;;;;;;;;;15.30;99.90;;;;;;5050460;28;861;-49
2022/01/24 04:09:51;;;;;;;;;;;15.20;99.90;;;;;;5047730;28;824;-52
2022/01/24 04:12:17;;;;;;;;;;;15.20;99.90;;;;;;5046208;28;1963;-46
2022/01/24 04:22:29;;;;;;;;;;;15.10;99.90;;;;;;5037965;28;791;-52
2022/01/24 04:25:00;;;;;;;;;;;15.10;99.90;;;;;;5037969;28;729;-52
2022/01/24 04:27:27;;;;;;;;;;;15.10;99.90;;;;;;5037485;28;897;-52
2022/01/24 04:29:53;;;;;;;;;;;15.10;99.90;;;;;;5037651;28;783;-52
2022/01/24 04:32:20;;;;;;;;;;;15.00;99.90;;;;;;5037552;28;1960;-52
2022/01/24 04:34:46;;;;;;;;;;;15.10;99.90;;;;;;5037037;28;1120;-52
2022/01/24 04:37:12;;;;;;;;;;;15.00;99.90;;;;;;5037108;28;886;-52
2022/01/24 04:39:38;;;;;;;;;;;15.00;99.90;;;;;;5019919;28;1778;-52
2022/01/24 04:42:09;;;;;;;;;;;15.00;99.90;;;;;;5037241;28;885;-52
2022/01/24 04:44:57;;;;;;;;;;;14.90;99.90;;;;;;5037384;28;896;-46
2022/01/24 04:47:36;;;;;;;;;;;14.90;99.90;;;;;;5037249;28;779;-46
2022/01/24 04:52:59;;;;;;;;;;;14.90;99.90;;;;;;5037347;28;1957;-46
2022/01/24 04:55:25;;;;;;;;;;;14.80;99.90;;;;;;5037416;28;749;-46
2022/01/24 04:57:52;;;;;;;;;;;14.80;99.90;;;;;;5037090;28;848;-46
2022/01/24 05:00:18;;;;;;;;;;;14.80;99.90;;;;;;5037881;28;1025;-46
2022/01/24 05:02:44;;;;;;;;;;;14.80;99.90;;;;;;5055077;28;1652;-46
2022/01/24 05:05:15;;;;;;;;;;;14.80;99.90;;;;;;5055277;28;888;-46
2022/01/24 05:07:41;;;;;;;;;;;14.70;99.90;;;;;;5052270;28;803;-52
2022/01/24 05:10:21;;;;;;;;;;;14.70;99.90;;;;;;5036872;28;865;-53
2022/01/24 05:23:36;;;;;;;;;;;14.60;99.90;;;;;;5055051;28;889;-46
2022/01/24 05:26:04;;;;;;;;;;;14.60;99.90;;;;;;5054678;28;901;-46
2022/01/24 05:28:31;;;;;;;;;;;14.60;99.90;;;;;;5055021;28;848;-52
2022/01/24 05:30:58;;;;;;;;;;;14.60;99.90;;;;;;5054890;28;1969;-52
2022/01/24 05:33:24;;;;;;;;;;;14.60;99.90;;;;;;5054594;28;896;-46
2022/01/24 05:35:51;;;;;;;;;;;14.50;99.90;;;;;;5054809;28;1019;-52
2022/01/24 05:38:17;;;;;;;;;;;14.50;99.90;;;;;;5047160;28;885;-46
2022/01/24 05:40:44;;;;;;;;;;;14.50;99.90;;;;;;5036404;28;789;-46
2022/01/24 05:43:10;;;;;;;;;;;14.50;99.90;;;;;;5035807;28;967;-46
2022/01/24 05:45:36;;;;;;;;;;;14.50;99.90;;;;;;5036895;28;1421;-46
2022/01/24 05:48:02;;;;;;;;;;;14.50;99.90;;;;;;5036913;28;853;-52
2022/01/24 05:50:28;;;;;;;;;;;14.40;99.90;;;;;;5036501;28;876;-52
2022/01/24 05:52:54;;;;;;;;;;;14.40;99.90;;;;;;5036740;28;1969;-46
2022/01/24 05:55:20;;;;;;;;;;;14.40;99.90;;;;;;5036316;28;809;-52
2022/01/24 05:57:46;;;;;;;;;;;14.40;99.90;;;;;;5036392;28;869;-46
2022/01/24 06:00:13;;;;;;;;;;;14.40;99.90;;;;;;5036154;28;830;-46
2022/01/24 06:02:39;;;;;;;;;;;14.40;99.90;;;;;;5036011;28;945;-51
2022/01/24 06:05:05;;;;;;;;;;;14.40;99.90;;;;;;5036414;28;803;-53
2022/01/24 06:07:31;;;;;;;;;;;14.40;99.90;;;;;;5036335;28;749;-52
2022/01/24 06:09:57;;;;;;;;;;;14.40;99.90;;;;;;5032005;28;821;-52
2022/01/24 06:12:24;;;;;;;;;;;14.40;99.90;;;;;;5040074;28;1975;-52
2022/01/24 06:14:50;;;;;;;;;;;14.50;99.90;;;;;;5018833;28;2513;-52
2022/01/24 06:17:17;;;;;;;;;;;14.50;99.90;;;;;;5036130;28;893;-52
2022/01/24 06:19:44;;;;;;;;;;;14.50;99.90;;;;;;5036161;28;947;-52
2022/01/24 06:22:10;;;;;;;;;;;14.50;99.90;;;;;;5036576;28;864;-52
2022/01/24 06:24:36;;;;;;;;;;;14.60;99.90;;;;;;5036229;28;804;-52
2022/01/24 06:27:02;;;;;;;;;;;14.60;99.90;;;;;;5036861;28;846;-52
2022/01/24 06:29:28;;;;;;;;;;;14.70;99.90;;;;;;5039988;28;773;-52
2022/01/24 06:31:54;;;;;;;;;;;14.70;99.90;;;;;;5039771;28;1906;-52
2022/01/24 06:34:20;;;;;;;;;;;14.70;99.90;;;;;;5039842;28;1549;-52
2022/01/24 06:36:46;;;;;;;;;;;14.80;99.90;;;;;;5058014;28;774;-52
2022/01/24 06:39:14;;;;;;;;;;;14.80;99.90;;;;;;5043512;28;785;-52
2022/01/24 06:41:42;;;;;;;;;;;14.90;99.90;;;;;;5045046;28;1016;-52
2022/01/24 06:44:09;;;;;;;;;;;15.00;99.90;;;;;;5058255;28;774;-46
2022/01/24 06:46:35;;;;;;;;;;;15.00;99.90;;;;;;5039965;28;905;-46
2022/01/24 06:49:01;;;;;;;;;;;15.00;99.90;;;;;;5057375;28;1001;-46
2022/01/24 06:51:27;;;;;;;;;;;15.10;99.90;;;;;;5057645;28;1967;-46
2022/01/24 06:53:53;;;;;;;;;;;15.10;99.90;;;;;;5046061;28;966;-46
2022/01/24 06:56:19;;;;;;;;;;;15.10;99.90;;;;;;5039300;28;1066;-46
2022/01/24 06:58:45;;;;;;;;;;;15.10;99.90;;;;;;5039426;28;797;-46
2022/01/24 07:01:11;;;;;;;;;;;15.20;99.90;;;;;;5039226;28;881;-46
2022/01/24 07:03:37;;;;;;;;;;;15.20;99.90;;;;;;5021905;28;889;-52
2022/01/24 07:06:03;;;;;;;;;;;15.20;99.90;;;;;;5021982;28;1239;-52
2022/01/24 07:08:29;;;;;;;;;;;15.20;99.90;;;;;;5039037;28;963;-52
2022/01/24 07:10:55;;;;;;;;;;;15.30;99.90;;;;;;5038742;28;1902;-52
2022/01/24 07:13:21;;;;;;;;;;;15.30;99.90;;;;;;5021704;28;903;-52
2022/01/24 07:15:57;;;;;;;;;;;15.30;99.90;;;;;;5038904;28;823;-52
2022/01/24 07:20:55;;;;;;;;;;;15.40;99.90;;;;;;5039167;28;823;-47
2022/01/24 07:23:22;;;;;;;;;;;15.40;99.90;;;;;;5018430;28;1678;-47
2022/01/24 07:25:48;;;;;;;;;;;15.40;99.90;;;;;;5038195;28;1827;-53
2022/01/24 07:28:14;;;;;;;;;;;15.50;99.90;;;;;;5038385;28;798;-46
2022/01/24 07:30:40;;;;;;;;;;;15.50;99.90;;;;;;5038364;28;868;-52
2022/01/24 07:33:06;;;;;;;;;;;15.50;99.90;;;;;;5038763;28;1910;-46
2022/01/24 07:35:33;;;;;;;;;;;15.50;99.90;;;;;;5038372;28;1141;-46
2022/01/24 07:37:59;;;;;;;;;;;15.60;99.90;;;;;;5020448;28;834;-46
2022/01/24 07:40:25;;;;;;;;;;;15.60;99.90;;;;;;5037952;28;882;-46
2022/01/24 07:45:21;;;;;;;;;;;15.60;99.90;;;;;;5056786;28;908;-52
2022/01/24 07:47:47;;;;;;;;;;;15.60;99.90;;;;;;5056690;28;867;-52
2022/01/24 07:50:14;;;;;;;;;;;15.70;99.90;;;;;;5055946;28;806;-53
2022/01/24 07:52:40;;;;;;;;;;;15.70;99.90;;;;;;5056878;28;1973;-52
2022/01/24 07:55:06;;;;;;;;;;;15.70;99.90;;;;;;5056533;28;784;-52
2022/01/24 07:57:32;;;;;;;;;;;15.70;99.90;;;;;;5056596;28;877;-52
2022/01/24 07:59:58;;;;;;;;;;;15.70;99.90;;;;;;5051997;28;1448;-52
2022/01/24 08:02:24;;;;;;;;;;;15.70;99.90;;;;;;5022206;28;1004;-52
2022/01/24 08:04:50;;;;;;;;;;;15.70;99.90;;;;;;5057000;28;747;-52
2022/01/24 08:07:16;;;;;;;;;;;15.70;99.90;;;;;;5056456;28;837;-46
2022/01/24 08:09:42;;;;;;;;;;;15.70;99.90;;;;;;5038116;28;885;-52
2022/01/24 08:12:09;;;;;;;;;;;15.70;99.90;;;;;;5038121;28;1985;-52
2022/01/24 08:14:34;;;;;;;;;;;15.70;99.90;;;;;;5043509;28;877;-52
2022/01/24 08:17:02;;;;;;;;;;;15.80;99.90;;;;;;5032181;28;910;-52
2022/01/24 08:19:28;;;;;;;;;;;15.80;99.90;;;;;;5032557;28;746;-52
2022/01/24 08:21:56;;;;;;;;;;;15.80;99.90;;;;;;5037628;28;977;-52
2022/01/24 08:24:23;;;;;;;;;;;15.80;99.90;;;;;;5037760;28;861;-52
2022/01/24 08:26:49;;;;;;;;;;;15.80;99.90;;;;;;5037698;28;771;-52
2022/01/24 08:29:15;;;;;;;;;;;15.80;99.90;;;;;;5037779;28;843;-52
2022/01/24 08:31:41;;;;;;;;;;;15.80;99.90;;;;;;5037379;28;1914;-52
2022/01/24 08:34:07;;;;;;;;;;;15.90;99.90;;;;;;5037431;28;1295;-52
2022/01/24 08:36:34;;;;;;;;;;;15.90;99.90;;;;;;5037865;28;771;-52
2022/01/24 08:39:06;;;;;;;;;;;15.90;99.90;;;;;;5036034;28;790;-52
2022/01/24 08:42:00;;;;;;;;;;;15.90;99.90;;;;;;5042585;28;832;-52
2022/01/24 08:47:05;;;;;;;;;;;15.90;99.90;;;;;;5055723;28;854;-52
2022/01/24 08:49:31;;;;;;;;;;;15.90;99.90;;;;;;5055645;28;980;-52
2022/01/24 08:52:00;;;;;;;;;;;15.90;99.90;;;;;;5025065;28;1918;-52
2022/01/24 08:54:27;;;;;;;;;;;16.00;99.90;;;;;;5037300;28;831;-52
2022/01/24 08:56:53;;;;;;;;;;;16.00;99.90;;;;;;5036944;28;825;-52
2022/01/24 08:59:21;;;;;;;;;;;16.00;99.90;;;;;;5037236;28;779;-52
2022/01/24 09:01:47;;;;;;;;;;;16.00;99.90;;;;;;5019813;28;917;-52
2022/01/24 09:04:13;;;;;;;;;;;16.00;99.90;;;;;;5037260;28;896;-52
2022/01/24 09:06:39;;;;;;;;;;;16.00;99.90;;;;;;5037331;28;823;-47
2022/01/24 09:09:05;;;;;;;;;;;16.00;99.90;;;;;;5036927;28;857;-46
2022/01/24 09:11:34;;;;;;;;;;;16.10;99.90;;;;;;5037415;28;1973;-45
2022/01/24 09:14:01;;;;;;;;;;;16.10;99.90;;;;;;5035998;28;1476;-47
2022/01/24 09:16:27;;;;;;;;;;;16.10;99.90;;;;;;5036941;28;795;-45
2022/01/24 09:18:54;;;;;;;;;;;16.10;99.90;;;;;;5039575;28;1181;-45
2022/01/24 09:21:20;;;;;;;;;;;16.10;99.90;;;;;;5054484;28;858;-47
2022/01/24 09:23:46;;;;;;;;;;;16.10;99.90;;;;;;5055064;28;844;-47
2022/01/24 09:26:12;;;;;;;;;;;16.10;99.90;;;;;;5054974;28;860;-47
2022/01/24 09:28:38;;;;;;;;;;;16.10;99.90;;;;;;5054520;28;1004;-45
2022/01/24 09:31:05;;;;;;;;;;;16.10;99.90;;;;;;5044878;28;1559;-45
2022/01/24 09:33:31;;;;;;;;;;;16.10;99.90;;;;;;5035557;28;1902;-45
2022/01/24 09:35:59;;;;;;;;;;;16.10;99.90;;;;;;5040300;28;1270;-45
2022/01/24 09:38:30;;;;;;;;;;;16.10;99.90;;;;;;5037114;28;1239;-47
2022/01/24 09:40:57;;;;;;;;;;;16.20;99.90;;;;;;5038176;28;1219;-51
2022/01/24 09:43:23;;;;;;;;;;;16.20;99.90;;;;;;5037406;28;1531;-53
2022/01/24 09:45:49;;;;;;;;;;;16.20;99.90;;;;;;5041775;28;1231;-51
2022/01/24 09:48:16;;;;;;;;;;;16.20;99.90;;;;;;5037460;28;1282;-52
2022/01/24 09:50:43;;;;;;;;;;;16.20;99.90;;;;;;5039429;28;1268;-51
2022/01/24 09:53:10;;;;;;;;;;;16.20;99.90;;;;;;5036625;28;1913;-51
2022/01/24 09:55:36;;;;;;;;;;;16.20;99.90;;;;;;5038426;28;1120;-51
2022/01/24 09:58:02;;;;;;;;;;;16.20;99.90;;;;;;5038162;28;1167;-46
2022/01/24 10:00:29;;;;;;;;;;;16.20;99.90;;;;;;5040252;28;1299;-46
2022/01/24 10:02:55;;;;;;;;;;;16.20;99.90;;;;;;5042127;28;1100;-46
2022/01/24 10:05:26;;;;;;;;;;;16.30;99.90;;;;;;5041221;28;1080;-46
2022/01/24 10:07:53;;;;;;;;;;;16.20;99.90;;;;;;5043747;28;1105;-52
2022/01/24 10:10:26;;;;;;;;;;;16.20;99.90;;;;;;5044058;28;1030;-52
2022/01/24 10:18:04;;;;;;;;;;;16.30;99.90;;;;;;5040477;28;1164;-52
2022/01/24 10:20:33;;;;;;;;;;;16.30;99.90;;;;;;5036421;28;1446;-52
2022/01/24 10:23:09;;;;;;;;;;;16.30;99.90;;;;;;5039245;28;1220;-52
2022/01/24 10:25:50;;;;;;;;;;;16.30;99.90;;;;;;5023120;28;1786;-52
2022/01/24 10:28:23;;;;;;;;;;;16.30;99.90;;;;;;5042602;28;1089;-52
2022/01/24 10:31:09;;;;;;;;;;;16.30;99.90;;;;;;5041433;28;1045;-46
2022/01/24 10:33:49;;;;;;;;;;;16.30;99.90;;;;;;5039691;28;1910;-52
2022/01/24 10:36:25;;;;;;;;;;;16.20;99.90;;;;;;5043558;28;1162;-45
2022/01/24 10:38:55;;;;;;;;;;;16.20;99.90;;;;;;5037366;28;1371;-45
2022/01/24 10:41:24;;;;;;;;;;;16.00;99.90;;;;;;5025751;28;838;-45
2022/01/24 10:43:52;;;;;;;;;;;15.80;99.90;;;;;;5057821;28;887;-45
2022/01/24 10:46:25;;;;;;;;;;;15.60;99.90;;;;;;5058102;28;809;-46
2022/01/24 10:49:20;;;;;;;;;;;15.40;99.90;;;;;;5051050;28;1001;-46
2022/01/24 10:51:47;;;;;;;;;;;15.40;99.90;;;;;;5040477;28;1982;-46
2022/01/24 10:54:14;;;;;;;;;;;15.70;99.90;;;;;;5041481;28;1054;-46
2022/01/24 10:56:41;;;;;;;;;;;16.10;99.90;;;;;;5038510;28;1298;-46
2022/01/24 10:59:09;;;;;;;;;;;16.30;99.90;;;;;;5057687;28;785;-46
2022/01/24 11:01:36;;;;;;;;;;;16.60;99.90;;;;;;5057622;28;802;-46
2022/01/24 11:04:03;;;;;;;;;;;16.70;99.90;;;;;;5056525;28;1053;-46
2022/01/24 11:06:32;;;;;;;;;;;16.60;99.90;;;;;;5033148;28;1147;-45
2022/01/24 11:09:23;;;;;;;;;;;16.60;99.90;;;;;;5038117;28;1290;-45
2022/01/24 11:11:53;;;;;;;;;;;16.50;99.90;;;;;;5032670;28;1890;-45
2022/01/24 11:14:20;;;;;;;;;;;16.50;99.90;;;;;;5034843;28;1390;-45
2022/01/24 11:16:48;;;;;;;;;;;16.50;99.90;;;;;;5039297;28;1054;-46
2022/01/24 11:19:20;;;;;;;;;;;16.60;99.90;;;;;;5054008;28;1023;-45
2022/01/24 11:21:47;;;;;;;;;;;16.60;99.90;;;;;;5035448;28;1206;-46
2022/01/24 11:24:18;;;;;;;;;;;16.70;99.90;;;;;;5039916;28;1066;-46
2022/01/24 11:26:46;;;;;;;;;;;16.70;99.90;;;;;;5031925;28;1219;-46
2022/01/24 11:29:12;;;;;;;;;;;16.80;99.90;;;;;;5035663;28;1171;-46
2022/01/24 11:31:44;;;;;;;;;;;16.80;99.90;;;;;;5048951;28;1961;-47
2022/01/24 11:34:19;;;;;;;;;;;16.80;99.90;;;;;;5055884;28;1140;-46
2022/01/24 11:36:45;;;;;;;;;;;16.90;99.90;;;;;;5056727;28;900;-46
2022/01/24 11:39:11;;;;;;;;;;;16.90;99.90;;;;;;5043490;28;852;-46
2022/01/24 11:41:40;;;;;;;;;;;17.00;99.90;;;;;;5038650;28;882;-46
2022/01/24 11:44:16;;;;;;;;;;;17.00;99.90;;;;;;5056907;28;876;-46
2022/01/24 11:46:47;;;;;;;;;;;17.10;99.90;;;;;;5052826;28;1069;-46
2022/01/24 11:49:18;;;;;;;;;;;17.10;99.90;;;;;;5035978;28;1231;-46
2022/01/24 11:51:45;;;;;;;;;;;17.10;99.90;;;;;;5035170;28;1965;-46
2022/01/24 11:54:42;;;;;;;;;;;17.10;99.90;;;;;;5034149;28;1444;-46
2022/01/24 11:57:15;;;;;;;;;;;17.20;99.90;;;;;;5033121;28;1171;-46
2022/01/24 11:59:41;;;;;;;;;;;17.20;99.90;;;;;;5041482;28;1073;-46
2022/01/24 12:02:09;;;;;;;;;;;17.20;99.90;;;;;;5033883;28;1057;-46
2022/01/24 12:04:48;;;;;;;;;;;17.20;99.90;;;;;;5031197;28;1229;-46
2022/01/24 12:07:16;;;;;;;;;;;17.20;99.90;;;;;;5037425;28;1220;-46
2022/01/24 12:09:42;;;;;;;;;;;17.20;99.90;;;;;;5037458;28;1071;-46
2022/01/24 12:12:34;;;;;;;;;;;17.30;99.90;;;;;;5033751;28;1911;-46
2022/01/24 12:15:00;;;;;;;;;;;17.30;99.90;;;;;;5041502;28;1421;-45
2022/01/24 12:17:44;;;;;;;;;;;17.30;99.90;;;;;;5043134;28;1035;-46
2022/01/24 12:20:43;;;;;;;;;;;17.30;99.90;;;;;;5044496;28;1052;-46
2022/01/24 12:23:19;;;;;;;;;;;17.30;99.90;;;;;;5011113;28;1096;-45
2022/01/24 12:25:48;;;;;;;;;;;17.30;99.90;;;;;;5037079;28;914;-45
2022/01/24 12:28:21;;;;;;;;;;;17.30;99.90;;;;;;5048229;28;1067;-45
2022/01/24 12:31:04;;;;;;;;;;;17.30;99.90;;;;;;5032156;28;1089;-45
2022/01/24 12:33:34;;;;;;;;;;;17.30;99.90;;;;;;5030248;28;1902;-45
2022/01/24 12:36:01;;;;;;;;;;;17.30;99.90;;;;;;5013062;28;1264;-52
2022/01/24 12:38:48;;;;;;;;;;;17.30;99.90;;;;;;5017531;28;1230;-52
2022/01/24 12:41:17;;;;;;;;;;;17.30;99.90;;;;;;5018059;28;1192;-53
2022/01/24 12:46:26;;;;;;;;;;;17.30;99.90;;;;;;5013439;28;1207;-52
2022/01/24 12:48:53;;;;;;;;;;;17.30;99.90;;;;;;5020137;28;1172;-51
2022/01/24 12:51:23;;;;;;;;;;;17.30;99.90;;;;;;5017598;28;1086;-51
2022/01/24 12:53:49;;;;;;;;;;;17.30;99.90;;;;;;5031371;28;1907;-51
2022/01/24 12:56:18;;;;;;;;;;;17.30;99.90;;;;;;5015484;28;1530;-52
2022/01/24 12:58:46;;;;;;;;;;;17.30;99.90;;;;;;5023409;28;1347;-51
2022/01/24 13:01:24;;;;;;;;;;;17.30;99.90;;;;;;5032762;28;1538;-52
2022/01/24 13:03:55;;;;;;;;;;;17.30;99.90;;;;;;5033272;28;1057;-52
2022/01/24 13:06:22;;;;;;;;;;;17.30;99.90;;;;;;5033557;28;1657;-52
2022/01/24 13:08:55;;;;;;;;;;;17.30;99.90;;;;;;5019415;28;1168;-51
2022/01/24 13:11:21;;;;;;;;;;;17.30;99.90;;;;;;5027638;28;965;-52
2022/01/24 13:14:00;;;;;;;;;;;17.30;99.90;;;;;;5018672;28;1910;-51
2022/01/24 13:22:18;;;;;;;;;;;17.30;99.90;;;;;;5023959;28;1019;-51
2022/01/24 13:25:23;;;;;;;;;;;17.30;99.90;;;;;;5032484;28;1168;-52
2022/01/24 13:27:56;;;;;;;;;;;17.30;99.90;;;;;;4956803;28;1549;-52
2022/01/24 13:30:24;;;;;;;;;;;17.30;99.90;;;;;;5007836;28;957;-52
2022/01/24 13:32:56;;;;;;;;;;;17.30;99.90;;;;;;5023687;28;1918;-52
2022/01/24 13:35:31;;;;;;;;;;;17.30;99.90;;;;;;5028122;28;1384;-52
2022/01/24 13:38:02;;;;;;;;;;;17.30;99.90;;;;;;5034230;28;1367;-52
2022/01/24 13:40:34;;;;;;;;;;;17.30;99.90;;;;;;5042342;28;844;-52
2022/01/24 13:43:01;;;;;;;;;;;17.30;99.90;;;;;;5036133;28;914;-52
2022/01/24 13:45:27;;;;;;;;;;;17.30;99.90;;;;;;5036471;28;1051;-52
2022/01/24 13:47:57;;;;;;;;;;;17.40;99.90;;;;;;5018289;28;795;-52
2022/01/24 13:50:23;;;;;;;;;;;17.40;99.90;;;;;;5034954;28;885;-45
2022/01/24 13:52:49;;;;;;;;;;;17.40;99.90;;;;;;5035036;28;1969;-45
2022/01/24 13:55:16;;;;;;;;;;;17.40;99.90;;;;;;5035033;28;850;-45
2022/01/24 13:57:43;;;;;;;;;;;17.40;99.90;;;;;;5035503;28;1312;-45
2022/01/24 14:00:10;;;;;;;;;;;17.50;99.90;;;;;;5048066;28;1013;-45
2022/01/24 14:02:36;;;;;;;;;;;17.50;99.90;;;;;;5053964;28;789;-45
2022/01/24 14:05:03;;;;;;;;;;;17.50;99.90;;;;;;5040015;28;1056;-45
2022/01/24 14:07:31;;;;;;;;;;;17.50;99.90;;;;;;5036687;28;896;-52
2022/01/24 14:09:57;;;;;;;;;;;17.50;99.90;;;;;;5036024;28;989;-52
2022/01/24 14:12:28;;;;;;;;;;;17.60;99.90;;;;;;5049516;28;1902;-52
2022/01/24 14:20:17;;;;;;;;;;;17.50;99.90;;;;;;5036355;28;816;-52
2022/01/24 14:22:45;;;;;;;;;;;17.50;99.90;;;;;;5036596;28;861;-52
2022/01/24 14:25:19;;;;;;;;;;;17.50;99.90;;;;;;5034969;28;869;-52
2022/01/24 14:27:47;;;;;;;;;;;17.50;99.90;;;;;;5035427;28;904;-52
2022/01/24 14:30:13;;;;;;;;;;;17.50;99.90;;;;;;5036195;28;869;-52
2022/01/24 14:32:47;;;;;;;;;;;17.50;99.90;;;;;;5035960;28;1969;-52
2022/01/24 14:35:13;;;;;;;;;;;17.50;99.90;;;;;;5035511;28;1090;-52
2022/01/24 14:37:52;;;;;;;;;;;17.50;99.90;;;;;;5036943;28;905;-52
2022/01/24 14:40:44;;;;;;;;;;;17.50;99.90;;;;;;5054455;28;852;-52
2022/01/24 14:45:58;;;;;;;;;;;17.50;99.90;;;;;;5036284;28;858;-52
2022/01/24 14:48:24;;;;;;;;;;;17.50;99.90;;;;;;5037622;28;900;-45
2022/01/24 14:50:50;;;;;;;;;;;17.50;99.90;;;;;;5039428;28;862;-45
2022/01/24 14:53:16;;;;;;;;;;;17.50;99.90;;;;;;5026740;28;1979;-45
2022/01/24 14:55:43;;;;;;;;;;;17.50;99.90;;;;;;5020151;28;973;-45
2022/01/24 14:58:14;;;;;;;;;;;17.50;99.90;;;;;;5029451;28;1287;-45
2022/01/24 15:00:41;;;;;;;;;;;17.60;99.90;;;;;;5031949;28;1177;-45
2022/01/24 15:03:07;;;;;;;;;;;17.60;99.90;;;;;;5036837;28;1294;-45
2022/01/24 15:05:33;;;;;;;;;;;17.60;99.90;;;;;;5035920;28;1005;-45
2022/01/24 15:07:59;;;;;;;;;;;17.60;99.90;;;;;;5037630;28;1277;-45
2022/01/24 15:10:26;;;;;;;;;;;17.60;99.90;;;;;;5036785;28;1183;-45
2022/01/24 15:12:55;;;;;;;;;;;17.60;99.90;;;;;;5036070;28;1918;-52
2022/01/24 15:15:23;;;;;;;;;;;17.70;99.90;;;;;;5037832;28;1147;-52
2022/01/24 15:26:19;;;;;;;;;;;17.70;99.90;;;;;;5011792;28;1634;-52
2022/01/24 15:28:45;;;;;;;;;;;17.60;99.90;;;;;;5022658;28;1196;-52
2022/01/24 15:31:12;;;;;;;;;;;17.70;99.90;;;;;;5037338;28;1156;-52
2022/01/24 15:33:38;;;;;;;;;;;17.60;99.90;;;;;;5038210;28;1910;-53
2022/01/24 15:36:04;;;;;;;;;;;17.70;99.90;;;;;;5016121;28;1328;-52
2022/01/24 15:38:30;;;;;;;;;;;17.70;99.90;;;;;;5036927;28;1211;-52
2022/01/24 15:40:57;;;;;;;;;;;17.70;99.90;;;;;;5035999;28;1194;-52
2022/01/24 15:46:13;;;;;;;;;;;17.70;99.90;;;;;;5039054;28;1525;-52
2022/01/24 15:48:39;;;;;;;;;;;17.70;99.90;;;;;;5036765;28;1165;-52
2022/01/24 15:51:11;;;;;;;;;;;17.70;99.90;;;;;;5039143;28;1189;-52
2022/01/24 15:53:43;;;;;;;;;;;17.70;99.90;;;;;;5040427;28;1977;-52
2022/01/24 15:57:39;;;;;;;;;;;17.80;99.90;;;;;;5040667;28;970;-52
2022/01/24 15:59:07;;;;;;;;;;;17.80;99.90;;;;;;5036501;28;960;-52
2022/01/24 16:01:33;;;;;;;;;;;17.80;99.90;;;;;;5036174;28;1046;-52
2022/01/24 16:03:59;;;;;;;;;;;17.80;99.90;;;;;;5036655;28;1020;-53
2022/01/24 16:06:25;;;;;;;;;;;17.80;99.90;;;;;;5035587;28;1238;-54
2022/01/24 16:08:52;;;;;;;;;;;17.80;99.90;;;;;;5034709;28;979;-52
2022/01/24 16:11:20;;;;;;;;;;;17.80;99.90;;;;;;5031734;28;1480;-52
2022/01/24 16:13:46;;;;;;;;;;;17.80;99.90;;;;;;5033675;28;1902;-52
2022/01/24 16:16:14;;;;;;;;;;;17.80;99.90;;;;;;5035871;28;1052;-53
2022/01/24 16:18:41;;;;;;;;;;;17.80;99.90;;;;;;5040785;28;1179;-53
2022/01/24 16:22:16;;;;;;;;;;;17.90;99.90;;;;;;5036491;28;947;-53
2022/01/24 16:26:44;;;;;;;;;;;17.90;99.90;;;;;;5041005;28;948;-53
2022/01/24 16:29:11;;;;;;;;;;;17.90;99.90;;;;;;5052225;28;1102;-52
2022/01/24 16:31:37;;;;;;;;;;;18.00;99.90;;;;;;5052851;28;1002;-53
2022/01/24 16:34:05;;;;;;;;;;;18.00;99.90;;;;;;5043550;28;1906;-52
2022/01/24 16:36:32;;;;;;;;;;;18.00;99.90;;;;;;5045103;28;992;-52
2022/01/24 16:39:00;;;;;;;;;;;18.00;99.90;;;;;;5035341;28;1902;-52
2022/01/24 16:41:36;;;;;;;;;;;18.00;99.90;;;;;;5035474;28;1064;-53
2022/01/24 16:49:33;;;;;;;;;;;18.00;99.90;;;;;;5038700;28;1210;-53
2022/01/24 16:51:59;;;;;;;;;;;18.00;99.90;;;;;;5038315;28;955;-53
2022/01/24 16:54:27;;;;;;;;;;;18.00;99.90;;;;;;5036706;28;1906;-53
2022/01/24 16:56:53;;;;;;;;;;;18.00;99.90;;;;;;5054776;28;924;-53
2022/01/24 16:59:21;;;;;;;;;;;18.00;99.90;;;;;;5047481;28;1033;-54
2022/01/24 17:01:47;;;;;;;;;;;18.00;99.90;;;;;;5040882;28;928;-55
2022/01/24 17:04:13;;;;;;;;;;;17.90;99.90;;;;;;5047720;28;758;-54
2022/01/24 17:06:40;;;;;;;;;;;17.90;99.90;;;;;;5037047;28;819;-54
2022/01/24 17:09:08;;;;;;;;;;;17.90;99.90;;;;;;5036646;28;826;-54
2022/01/24 17:11:35;;;;;;;;;;;17.90;99.90;;;;;;5040514;28;947;-54
2022/01/24 17:14:08;;;;;;;;;;;17.90;99.90;;;;;;5054065;28;1992;-54
2022/01/24 17:16:35;;;;;;;;;;;17.80;99.90;;;;;;5055166;28;817;-54